Time;durP1;ratioP1;P1;durP2;ratioP2;P2;SDS_P1;SDS_P2;PMS_P1;PMS_P2;Temp;Humidity;BMP_temperature;BMP_pressure;BME280_temperature;BME280_humidity;BME280_pressure;Samples;Min_cycle;Max_cycle;Signal;HPM_P1;HPM_P2
2022/06/13 00:01:39;;;;;;;3.07;1.70;;;18.30;99.30;;;;;;5070358;28;20528;-46
2022/06/13 00:04:08;;;;;;;2.00;1.90;;;18.20;99.10;;;;;;5071202;28;20447;-45
2022/06/13 00:06:37;;;;;;;2.43;2.00;;;17.80;99.80;;;;;;5070513;28;20440;-48
2022/06/13 00:09:06;;;;;;;2.90;2.07;;;17.80;99.90;;;;;;5070098;28;21008;-45
2022/06/13 00:11:33;;;;;;;2.77;1.97;;;18.00;99.90;;;;;;5070472;28;20564;-46
2022/06/13 00:14:00;;;;;;;2.37;1.77;;;18.20;99.90;;;;;;5072833;28;20472;-46
2022/06/13 00:16:27;;;;;;;9.67;2.73;;;18.30;99.90;;;;;;5074380;28;20475;-46
2022/06/13 00:18:55;;;;;;;2.43;2.07;;;18.40;99.90;;;;;;5073596;28;20530;-45
2022/06/13 00:21:24;;;;;;;3.30;1.90;;;18.40;99.90;;;;;;5074065;28;20490;-46
2022/06/13 00:23:52;;;;;;;2.87;2.20;;;18.40;99.90;;;;;;5074095;28;20448;-46
2022/06/13 00:26:21;;;;;;;3.00;2.40;;;18.40;99.90;;;;;;5074166;28;20531;-46
2022/06/13 00:28:48;;;;;;;3.63;2.57;;;18.40;99.90;;;;;;5073457;28;20445;-47
2022/06/13 00:31:15;;;;;;;3.00;2.10;;;18.10;99.90;;;;;;5073604;28;20499;-46
2022/06/13 00:33:42;;;;;;;2.13;1.87;;;18.10;99.90;;;;;;5073960;28;20580;-45
2022/06/13 00:36:09;;;;;;;2.47;2.00;;;18.10;99.90;;;;;;5073867;28;20505;-47
2022/06/13 00:38:37;;;;;;;3.13;2.13;;;18.00;99.90;;;;;;5073489;28;20464;-46
2022/06/13 00:41:09;;;;;;;2.80;2.50;;;17.90;99.90;;;;;;5073305;28;20547;-45
2022/06/13 00:43:37;;;;;;;4.30;2.20;;;17.90;99.90;;;;;;5073388;28;20524;-45
2022/06/13 00:46:15;;;;;;;2.97;2.40;;;18.10;99.90;;;;;;5073613;28;20501;-46
2022/06/13 00:48:42;;;;;;;4.60;2.23;;;18.00;99.90;;;;;;5073682;28;20543;-47
2022/06/13 00:51:10;;;;;;;2.13;1.93;;;18.00;99.90;;;;;;5073575;28;20487;-45
2022/06/13 00:53:38;;;;;;;2.03;1.80;;;18.00;99.90;;;;;;5073354;28;20567;-46
2022/06/13 00:56:10;;;;;;;3.63;2.33;;;17.80;99.90;;;;;;5073182;28;21074;-45
2022/06/13 00:58:41;;;;;;;2.70;2.50;;;17.90;99.90;;;;;;5073574;28;20448;-47
2022/06/13 01:01:09;;;;;;;3.77;2.87;;;17.90;99.90;;;;;;5072946;28;20468;-48
2022/06/13 01:03:37;;;;;;;3.90;2.37;;;17.90;99.90;;;;;;5073379;28;20538;-46
2022/06/13 01:06:07;;;;;;;4.07;2.73;;;17.40;99.90;;;;;;5073167;28;20444;-48
2022/06/13 01:08:38;;;;;;;2.40;2.00;;;17.20;99.90;;;;;;5073267;28;20447;-45
2022/06/13 01:11:19;;;;;;;2.10;1.90;;;17.00;99.90;;;;;;5072931;28;20551;-49
2022/06/13 01:14:19;;;;;;;2.33;2.10;;;17.20;99.90;;;;;;5072844;28;20468;-45
2022/06/13 01:16:59;;;;;;;2.30;2.10;;;17.30;99.90;;;;;;5073103;28;20436;-45
2022/06/13 01:19:57;;;;;;;2.67;2.47;;;17.50;99.90;;;;;;5072892;28;20480;-47
2022/06/13 01:23:01;;;;;;;3.27;2.53;;;17.60;99.90;;;;;;5073008;28;20464;-46
2022/06/13 01:25:42;;;;;;;2.57;2.13;;;17.70;99.90;;;;;;5065243;28;21024;-51
2022/06/13 01:28:36;;;;;;;3.13;2.50;;;17.70;99.90;;;;;;5072710;28;20436;-45
2022/06/13 01:31:15;;;;;;;3.17;2.57;;;17.80;99.90;;;;;;5072602;28;20500;-45
2022/06/13 01:33:54;;;;;;;3.00;2.50;;;17.80;99.90;;;;;;5072869;28;20537;-45
2022/06/13 01:36:38;;;;;;;2.90;2.00;;;17.80;99.90;;;;;;5072682;28;20499;-46
2022/06/13 01:39:17;;;;;;;2.67;2.40;;;17.90;99.90;;;;;;5072590;28;20861;-46
2022/06/13 01:41:57;;;;;;;3.30;2.43;;;18.00;99.90;;;;;;5072048;28;20501;-47
2022/06/13 01:44:36;;;;;;;5.23;2.83;;;18.00;99.90;;;;;;5072295;28;20996;-46
2022/06/13 01:47:09;;;;;;;3.13;2.10;;;17.70;99.90;;;;;;5072271;28;20884;-46
2022/06/13 01:49:48;;;;;;;2.83;2.43;;;17.50;99.90;;;;;;5072075;28;20492;-45
2022/06/13 01:52:23;;;;;;;2.73;2.10;;;16.90;99.90;;;;;;5072490;28;20841;-48
2022/06/13 01:54:55;;;;;;;2.67;2.47;;;16.70;99.90;;;;;;5072407;28;20482;-46
2022/06/13 01:57:33;;;;;;;2.67;2.40;;;16.80;99.90;;;;;;5072260;28;20502;-46
2022/06/13 02:00:08;;;;;;;2.20;2.00;;;17.00;99.90;;;;;;5072779;28;20504;-48
2022/06/13 02:02:42;;;;;;;5.63;3.03;;;17.20;99.90;;;;;;5071248;28;20435;-45
2022/06/13 02:05:14;;;;;;;2.63;2.43;;;17.30;99.90;;;;;;5071458;28;20451;-47
2022/06/13 02:07:45;;;;;;;4.10;2.90;;;17.40;99.90;;;;;;5071240;28;20535;-46
2022/06/13 02:10:18;;;;;;;4.40;2.07;;;17.60;99.90;;;;;;5070885;28;20522;-45
2022/06/13 02:12:50;;;;;;;2.90;2.60;;;17.60;99.90;;;;;;5071118;28;20478;-48
2022/06/13 02:15:22;;;;;;;2.90;2.60;;;17.70;99.90;;;;;;5071201;28;20441;-46
2022/06/13 02:17:56;;;;;;;2.00;1.80;;;17.90;99.90;;;;;;5071471;28;20476;-46
2022/06/13 02:20:27;;;;;;;3.70;2.20;;;17.90;99.90;;;;;;5070618;28;20965;-47
2022/06/13 02:22:56;;;;;;;2.73;2.53;;;17.90;99.90;;;;;;5071104;28;20436;-46
2022/06/13 02:25:28;;;;;;;2.87;2.23;;;18.00;99.90;;;;;;5070770;28;21031;-47
2022/06/13 02:27:58;;;;;;;2.83;2.37;;;18.00;99.90;;;;;;5070949;28;20448;-45
2022/06/13 02:30:29;;;;;;;2.47;2.27;;;18.00;99.90;;;;;;5070444;28;20468;-45
2022/06/13 02:33:03;;;;;;;2.50;2.30;;;18.10;99.90;;;;;;5070920;28;21063;-46
2022/06/13 02:35:35;;;;;;;10.93;2.90;;;17.80;99.90;;;;;;5070866;28;20449;-49
2022/06/13 02:38:08;;;;;;;3.20;2.50;;;17.90;99.90;;;;;;5070691;28;20535;-48
2022/06/13 02:40:38;;;;;;;3.73;2.73;;;17.80;99.90;;;;;;5070471;28;20464;-46
2022/06/13 02:43:10;;;;;;;4.07;2.33;;;17.90;99.90;;;;;;5070452;28;20438;-46
2022/06/13 02:45:42;;;;;;;2.57;2.27;;;17.80;99.90;;;;;;5070523;28;20951;-45
2022/06/13 02:48:15;;;;;;;2.77;2.57;;;17.30;99.90;;;;;;5070814;28;20873;-47
2022/06/13 02:50:48;;;;;;;4.13;2.73;;;17.00;99.90;;;;;;5070711;28;20551;-46
2022/06/13 02:53:21;;;;;;;2.37;2.00;;;17.10;99.90;;;;;;5070089;28;21093;-48
2022/06/13 02:56:07;;;;;;;2.30;2.10;;;17.20;99.90;;;;;;5070295;28;20501;-45
2022/06/13 02:58:38;;;;;;;2.90;2.60;;;17.20;99.90;;;;;;5070659;28;20444;-46
2022/06/13 03:01:11;;;;;;;2.40;2.20;;;17.40;99.90;;;;;;5030500;28;1152853;-50
2022/06/13 03:03:49;;;;;;;2.87;2.57;;;17.50;99.90;;;;;;5071612;28;20194;-45
2022/06/13 03:06:23;;;;;;;2.90;2.13;;;17.60;99.90;;;;;;5071300;28;20444;-46
2022/06/13 03:08:57;;;;;;;4.17;2.10;;;17.60;99.90;;;;;;5070894;28;20513;-46
2022/06/13 03:11:35;;;;;;;2.20;2.00;;;17.50;99.90;;;;;;5070896;28;20539;-47
2022/06/13 03:14:15;;;;;;;3.00;2.60;;;17.50;99.90;;;;;;5071152;28;20507;-48
2022/06/13 03:16:48;;;;;;;4.83;2.37;;;17.50;99.90;;;;;;5071208;28;20480;-49
2022/06/13 03:19:23;;;;;;;2.40;2.20;;;17.50;99.90;;;;;;5071074;28;20444;-46
2022/06/13 03:21:53;;;;;;;2.60;2.10;;;17.60;99.90;;;;;;5070898;28;20443;-47
2022/06/13 03:24:25;;;;;;;2.13;1.93;;;17.30;99.90;;;;;;5071199;28;20468;-46
2022/06/13 03:26:58;;;;;;;3.17;2.77;;;17.20;99.90;;;;;;5071084;28;20532;-47
2022/06/13 03:29:31;;;;;;;3.33;2.20;;;17.40;99.90;;;;;;5070321;28;20531;-48
2022/06/13 03:32:04;;;;;;;2.50;2.30;;;17.40;99.90;;;;;;5071092;28;20477;-46
2022/06/13 03:34:35;;;;;;;2.83;2.57;;;17.10;99.90;;;;;;5070991;28;21075;-45
2022/06/13 03:37:06;;;;;;;2.67;2.47;;;16.50;99.90;;;;;;5071271;28;20501;-47
2022/06/13 03:39:39;;;;;;;4.13;2.60;;;16.50;99.90;;;;;;5070722;28;20460;-46
2022/06/13 03:42:13;;;;;;;3.20;2.53;;;16.50;99.90;;;;;;5070254;28;20448;-46
2022/06/13 03:44:48;;;;;;;3.00;1.87;;;16.70;99.90;;;;;;5070811;28;20479;-46
2022/06/13 03:47:20;;;;;;;4.10;2.00;;;16.90;99.90;;;;;;5070802;28;20535;-46
2022/06/13 03:49:56;;;;;;;2.93;2.63;;;17.10;99.90;;;;;;5074340;28;20470;-45
2022/06/13 03:52:26;;;;;;;2.90;2.60;;;17.30;99.90;;;;;;5074484;28;20444;-46
2022/06/13 03:55:05;;;;;;;2.30;2.10;;;17.00;99.90;;;;;;5074464;28;20527;-47
2022/06/13 03:57:39;;;;;;;2.50;2.30;;;17.00;99.90;;;;;;5074740;28;20444;-46
2022/06/13 04:00:11;;;;;;;2.67;2.47;;;17.10;99.90;;;;;;5073807;28;20533;-46
2022/06/13 04:02:40;;;;;;;2.90;2.47;;;17.20;99.90;;;;;;5074691;28;20451;-46
2022/06/13 04:05:17;;;;;;;2.83;2.40;;;17.20;99.90;;;;;;5074461;28;20444;-46
2022/06/13 04:07:44;;;;;;;4.87;2.20;;;17.40;99.90;;;;;;5074339;28;20472;-49
2022/06/13 04:10:15;;;;;;;3.33;3.03;;;17.40;99.90;;;;;;5073716;28;20514;-46
2022/06/13 04:13:08;;;;;;;2.60;2.40;;;17.50;99.90;;;;;;5074028;28;20873;-47
2022/06/13 04:16:07;;;;;;;2.40;2.13;;;17.60;99.90;;;;;;5038636;28;20436;-47
2022/06/13 04:18:43;;;;;;;2.17;1.97;;;17.60;99.90;;;;;;5058737;28;20452;-46
2022/06/13 04:21:27;;;;;;;2.90;2.13;;;17.60;99.90;;;;;;5073982;28;20508;-48
2022/06/13 04:24:11;;;;;;;2.93;2.70;;;17.70;99.90;;;;;;5074078;28;20464;-46
2022/06/13 04:26:43;;;;;;;2.60;2.20;;;17.80;99.90;;;;;;5074121;28;20505;-46
2022/06/13 04:29:19;;;;;;;2.57;2.23;;;17.80;99.90;;;;;;5073628;28;20495;-46
2022/06/13 04:31:47;;;;;;;2.43;2.23;;;17.80;99.90;;;;;;5073822;28;20444;-46
2022/06/13 04:34:17;;;;;;;2.30;2.10;;;17.80;99.90;;;;;;5073864;28;20480;-46
2022/06/13 04:36:47;;;;;;;2.83;2.50;;;17.80;99.90;;;;;;5073805;28;20482;-48
2022/06/13 04:39:19;;;;;;;2.47;2.27;;;17.90;99.90;;;;;;5073840;28;20823;-46
2022/06/13 04:41:46;;;;;;;3.27;2.73;;;17.80;99.90;;;;;;5072997;28;20450;-46
2022/06/13 04:44:19;;;;;;;2.70;2.33;;;17.60;99.90;;;;;;5073481;28;20472;-46
2022/06/13 04:46:48;;;;;;;2.67;2.43;;;17.30;99.90;;;;;;5073890;28;20444;-51
2022/06/13 04:49:24;;;;;;;4.77;2.30;;;17.40;99.90;;;;;;5073220;28;20498;-48
2022/06/13 04:51:53;;;;;;;3.13;2.83;;;17.50;99.90;;;;;;5073602;28;20446;-47
2022/06/13 04:54:30;;;;;;;4.90;4.37;;;17.50;99.90;;;;;;5073230;28;21081;-45
2022/06/13 04:56:59;;;;;;;5.93;5.00;;;17.40;99.90;;;;;;5073311;28;20446;-46
2022/06/13 04:59:26;;;;;;;3.10;2.80;;;17.20;99.90;;;;;;5071788;28;20444;-47
2022/06/13 05:01:55;;;;;;;3.23;2.93;;;17.10;99.90;;;;;;5073384;28;20440;-46
2022/06/13 05:04:25;;;;;;;6.30;3.20;;;17.20;99.90;;;;;;5073535;28;20468;-46
2022/06/13 05:06:55;;;;;;;3.20;2.70;;;17.40;99.90;;;;;;5074027;28;20506;-46
2022/06/13 05:09:25;;;;;;;5.47;2.70;;;17.50;99.90;;;;;;5073166;28;20469;-47
2022/06/13 05:11:56;;;;;;;3.30;3.00;;;17.60;99.90;;;;;;5072899;28;20857;-47
2022/06/13 05:14:29;;;;;;;3.00;2.70;;;17.70;99.90;;;;;;5073240;28;20567;-46
2022/06/13 05:17:11;;;;;;;3.93;2.80;;;17.80;99.90;;;;;;5073081;28;20527;-49
2022/06/13 05:19:56;;;;;;;3.00;2.80;;;17.70;99.90;;;;;;5072728;28;20461;-47
2022/06/13 05:22:51;;;;;;;3.53;3.23;;;17.70;99.90;;;;;;5073138;28;20499;-46
2022/06/13 05:25:36;;;;;;;3.30;2.70;;;17.80;99.90;;;;;;5072959;28;20472;-48
2022/06/13 05:28:03;;;;;;;3.20;2.90;;;17.90;99.90;;;;;;5073074;28;20873;-47
2022/06/13 05:30:30;;;;;;;3.80;2.53;;;17.90;99.90;;;;;;5072691;28;20495;-46
2022/06/13 05:32:58;;;;;;;5.57;3.07;;;17.90;99.90;;;;;;5072807;28;20497;-47
2022/06/13 05:35:27;;;;;;;3.30;3.03;;;17.90;99.90;;;;;;5073037;28;20827;-46
2022/06/13 05:37:57;;;;;;;2.77;2.57;;;18.00;99.90;;;;;;5072829;28;20523;-47
2022/06/13 05:40:24;;;;;;;3.10;2.80;;;18.10;99.90;;;;;;5072276;28;20882;-46
2022/06/13 05:42:52;;;;;;;2.47;2.27;;;18.10;99.90;;;;;;5071742;28;20480;-49
2022/06/13 05:45:22;;;;;;;2.73;2.53;;;18.10;99.90;;;;;;5072544;28;20472;-46
2022/06/13 05:47:51;;;;;;;3.80;2.53;;;18.20;99.90;;;;;;5072447;28;20448;-46
2022/06/13 05:50:19;;;;;;;3.27;2.97;;;18.20;99.90;;;;;;5072402;28;20569;-45
2022/06/13 05:52:47;;;;;;;2.87;2.57;;;18.00;99.90;;;;;;5072588;28;20794;-45
2022/06/13 05:55:15;;;;;;;3.33;2.43;;;17.80;99.90;;;;;;5072919;28;20546;-46
2022/06/13 05:57:42;;;;;;;4.73;3.43;;;17.70;99.90;;;;;;5072228;28;20538;-50
2022/06/13 06:00:16;;;;;;;3.80;3.40;;;17.70;99.90;;;;;;5071686;28;20848;-46
2022/06/13 06:02:43;;;;;;;3.33;3.03;;;17.70;99.90;;;;;;5072177;28;20806;-46
2022/06/13 06:05:10;;;;;;;2.93;2.50;;;17.80;99.90;;;;;;5072070;28;20468;-48
2022/06/13 06:07:38;;;;;;;4.40;2.83;;;17.80;99.90;;;;;;5071762;28;20524;-46
2022/06/13 06:10:07;;;;;;;4.07;3.77;;;17.80;99.90;;;;;;5071798;28;20539;-47
2022/06/13 06:12:35;;;;;;;3.97;3.60;;;17.90;99.90;;;;;;5071800;28;20475;-46
2022/06/13 06:15:02;;;;;;;3.00;2.70;;;17.90;99.90;;;;;;5071741;28;20567;-46
2022/06/13 06:17:29;;;;;;;4.20;3.07;;;18.00;99.90;;;;;;5072240;28;20524;-46
2022/06/13 06:19:56;;;;;;;3.70;2.93;;;18.00;99.90;;;;;;5071745;28;20495;-48
2022/06/13 06:22:23;;;;;;;3.87;3.00;;;17.90;99.90;;;;;;5072040;28;20948;-48
2022/06/13 06:24:50;;;;;;;4.10;3.30;;;17.70;99.90;;;;;;5071767;28;20554;-48
2022/06/13 06:27:17;;;;;;;3.03;2.70;;;17.30;99.90;;;;;;5071374;28;21020;-46
2022/06/13 06:29:45;;;;;;;3.87;2.73;;;17.10;99.90;;;;;;5071170;28;20519;-49
2022/06/13 06:32:12;;;;;;;3.10;2.70;;;17.20;99.90;;;;;;5071778;28;21140;-46
2022/06/13 06:34:39;;;;;;;3.03;2.73;;;17.30;99.90;;;;;;5071889;28;20472;-46
2022/06/13 06:37:07;;;;;;;4.93;2.93;;;17.40;99.90;;;;;;5071559;28;20482;-47
2022/06/13 06:39:34;;;;;;;3.00;2.70;;;17.60;99.90;;;;;;5071594;28;20464;-46
2022/06/13 06:42:01;;;;;;;4.10;3.10;;;17.60;99.90;;;;;;5071238;28;20440;-48
2022/06/13 06:44:28;;;;;;;5.13;3.10;;;17.60;99.90;;;;;;5071551;28;20492;-46
2022/06/13 06:46:56;;;;;;;4.20;2.70;;;17.50;99.90;;;;;;5071803;28;20472;-46
2022/06/13 06:49:23;;;;;;;3.50;3.20;;;17.50;99.90;;;;;;5071043;28;20599;-46
2022/06/13 06:51:50;;;;;;;3.43;3.13;;;17.50;99.90;;;;;;5071313;28;20472;-48
2022/06/13 06:59:55;;;;;;;4.30;2.90;;;17.40;99.90;;;;;;5070994;28;20470;-46
2022/06/13 07:02:25;;;;;;;2.77;2.50;;;17.40;99.90;;;;;;5071084;28;20447;-46
2022/06/13 07:04:53;;;;;;;3.40;3.07;;;17.50;99.90;;;;;;5071392;28;20519;-46
2022/06/13 07:07:20;;;;;;;3.27;2.40;;;17.50;99.90;;;;;;5071159;28;20896;-46
2022/06/13 07:09:47;;;;;;;5.60;4.03;;;17.60;99.90;;;;;;5070834;28;20464;-48
2022/06/13 07:12:14;;;;;;;4.07;3.07;;;17.70;99.90;;;;;;5071069;28;20969;-47
2022/06/13 07:14:41;;;;;;;5.90;2.87;;;17.80;99.90;;;;;;5071945;28;20559;-48
2022/06/13 07:17:09;;;;;;;4.13;3.20;;;17.80;99.90;;;;;;5070988;28;20450;-47
2022/06/13 07:19:38;;;;;;;4.07;3.67;;;17.90;99.90;;;;;;5070636;28;21003;-47
2022/06/13 07:22:07;;;;;;;2.83;2.60;;;17.90;99.90;;;;;;5071472;28;20851;-49
2022/06/13 07:24:35;;;;;;;2.53;2.07;;;18.00;99.90;;;;;;5075059;28;20436;-47
2022/06/13 07:27:02;;;;;;;2.87;1.97;;;18.10;99.90;;;;;;5075228;28;20479;-49
2022/06/13 07:29:29;;;;;;;3.53;2.73;;;18.10;99.90;;;;;;5074367;28;20483;-46
2022/06/13 07:31:59;;;;;;;3.30;2.40;;;18.20;99.90;;;;;;5075061;28;20487;-49
2022/06/13 07:34:29;;;;;;;3.10;2.60;;;18.20;99.90;;;;;;5074808;28;20988;-46
2022/06/13 07:37:00;;;;;;;3.03;2.50;;;18.10;99.90;;;;;;5075489;28;20498;-48
2022/06/13 07:39:27;;;;;;;3.00;2.63;;;18.10;99.90;;;;;;5074589;28;20483;-46
2022/06/13 07:41:54;;;;;;;3.93;3.40;;;18.10;99.90;;;;;;5074282;28;20531;-47
2022/06/13 07:44:24;;;;;;;3.50;2.93;;;18.30;99.90;;;;;;5074869;28;20440;-46
2022/06/13 07:46:52;;;;;;;2.40;2.20;;;18.30;99.90;;;;;;5074816;28;20483;-50
2022/06/13 07:49:20;;;;;;;1.90;1.70;;;18.30;99.90;;;;;;5074479;28;20968;-46
2022/06/13 07:51:47;;;;;;;2.50;2.30;;;18.30;99.90;;;;;;5074439;28;20471;-46
2022/06/13 07:54:16;;;;;;;2.37;2.17;;;18.30;99.90;;;;;;5074592;28;20512;-46
2022/06/13 07:56:44;;;;;;;2.80;2.60;;;18.30;99.90;;;;;;5074874;28;20543;-48
2022/06/13 07:59:15;;;;;;;3.00;2.70;;;18.30;99.90;;;;;;5074324;28;20460;-48
2022/06/13 08:01:42;;;;;;;3.33;2.83;;;18.20;99.90;;;;;;5075835;28;20897;-47
2022/06/13 08:04:10;;;;;;;2.90;2.70;;;18.40;99.90;;;;;;5074634;28;20468;-46
2022/06/13 08:06:38;;;;;;;3.37;3.00;;;18.50;99.90;;;;;;5074359;28;20444;-48
2022/06/13 08:09:05;;;;;;;5.03;3.07;;;18.70;99.90;;;;;;5074227;28;20444;-46
2022/06/13 08:11:37;;;;;;;2.70;2.40;;;18.80;99.90;;;;;;5074549;28;20625;-46
2022/06/13 08:14:06;;;;;;;2.80;2.60;;;18.90;99.90;;;;;;5074308;28;20500;-46
2022/06/13 08:16:34;;;;;;;3.70;2.43;;;18.80;99.90;;;;;;5074148;28;20533;-46
2022/06/13 08:19:02;;;;;;;2.23;1.90;;;18.90;99.90;;;;;;5073724;28;20450;-46
2022/06/13 08:21:29;;;;;;;3.40;2.30;;;19.00;99.90;;;;;;5074090;28;20470;-47
2022/06/13 08:23:56;;;;;;;3.37;2.27;;;19.10;99.90;;;;;;5074275;28;20448;-44
2022/06/13 08:26:23;;;;;;;3.07;2.57;;;18.90;99.90;;;;;;5073828;28;20440;-45
2022/06/13 08:28:51;;;;;;;4.53;2.73;;;18.90;99.90;;;;;;5073194;28;20861;-47
2022/06/13 08:31:21;;;;;;;2.30;2.10;;;19.00;99.90;;;;;;5074238;28;20471;-46
2022/06/13 08:33:48;;;;;;;2.20;2.00;;;19.00;99.90;;;;;;5073607;28;20444;-46
2022/06/13 08:36:15;;;;;;;2.80;2.60;;;19.00;99.90;;;;;;5073713;28;20440;-46
2022/06/13 08:38:42;;;;;;;3.50;2.30;;;19.10;99.90;;;;;;5073588;28;20451;-49
2022/06/13 08:41:21;;;;;;;3.50;2.83;;;19.20;99.90;;;;;;5073828;28;20460;-48
2022/06/13 08:44:05;;;;;;;2.60;2.40;;;19.30;99.90;;;;;;5073492;28;20519;-47
2022/06/13 08:46:44;;;;;;;2.57;2.33;;;19.30;99.90;;;;;;5073811;28;20440;-46
2022/06/13 08:49:17;;;;;;;3.10;2.57;;;19.60;99.90;;;;;;5073509;28;20472;-46
2022/06/13 08:51:47;;;;;;;2.93;2.63;;;19.60;99.90;;;;;;5073482;28;20513;-46
2022/06/13 08:54:20;;;;;;;3.37;2.50;;;19.70;99.90;;;;;;5073473;28;20816;-48
2022/06/13 08:56:48;;;;;;;2.87;2.67;;;19.60;99.90;;;;;;5073220;28;20996;-44
2022/06/13 08:59:26;;;;;;;2.93;2.63;;;19.50;99.90;;;;;;5073238;28;20440;-46
2022/06/13 09:01:58;;;;;;;2.90;2.10;;;19.50;99.90;;;;;;5073524;28;20436;-47
2022/06/13 09:04:30;;;;;;;3.53;2.73;;;19.50;99.90;;;;;;5073345;28;20440;-47
2022/06/13 09:07:03;;;;;;;5.30;2.33;;;19.60;99.90;;;;;;5073104;28;20522;-47
2022/06/13 09:09:38;;;;;;;3.10;2.90;;;19.60;99.90;;;;;;5073207;28;20497;-46
2022/06/13 09:12:09;;;;;;;2.67;2.47;;;19.50;99.90;;;;;;5073129;28;20874;-46
2022/06/13 09:14:43;;;;;;;2.63;2.40;;;19.60;99.90;;;;;;5073018;28;21207;-47
2022/06/13 09:17:16;;;;;;;3.33;2.53;;;19.60;99.90;;;;;;5073280;28;20445;-47
2022/06/13 09:19:49;;;;;;;2.73;2.47;;;19.60;99.90;;;;;;5072516;28;20464;-46
2022/06/13 09:22:22;;;;;;;2.60;2.40;;;19.60;99.90;;;;;;5073355;28;20436;-47
2022/06/13 09:24:55;;;;;;;3.53;2.50;;;19.70;99.90;;;;;;5073023;28;20461;-49
2022/06/13 09:27:26;;;;;;;2.93;2.60;;;19.70;99.90;;;;;;5072975;28;20493;-47
2022/06/13 09:30:00;;;;;;;3.87;2.80;;;19.70;99.90;;;;;;5072266;28;20958;-47
2022/06/13 09:32:33;;;;;;;3.07;2.63;;;20.00;99.90;;;;;;5072682;28;20984;-50
2022/06/13 09:35:09;;;;;;;3.27;2.97;;;20.10;99.90;;;;;;5072928;28;20508;-47
2022/06/13 09:37:44;;;;;;;3.27;2.40;;;20.20;99.90;;;;;;5072558;28;20991;-47
2022/06/13 09:40:13;;;;;;;3.83;2.33;;;20.00;99.90;;;;;;5072226;28;20539;-46
2022/06/13 09:42:57;;;;;;;2.03;1.77;;;19.80;99.90;;;;;;5071871;28;20450;-49
2022/06/13 09:45:50;;;;;;;2.13;1.93;;;19.70;99.90;;;;;;5071903;28;20502;-46
2022/06/13 09:48:30;;;;;;;2.73;2.53;;;19.70;99.90;;;;;;5072585;28;20436;-48
2022/06/13 09:51:05;;;;;;;5.00;3.20;;;19.90;99.90;;;;;;5071737;28;21055;-47
2022/06/13 09:53:38;;;;;;;3.60;3.30;;;19.80;99.90;;;;;;5072413;28;20435;-48
2022/06/13 09:56:09;;;;;;;3.40;3.10;;;19.70;99.90;;;;;;5072441;28;20823;-47
2022/06/13 09:58:50;;;;;;;4.10;3.70;;;19.70;99.90;;;;;;5072167;28;21000;-46
2022/06/13 10:01:23;;;;;;;4.00;3.60;;;19.70;99.90;;;;;;5072059;28;20504;-49
2022/06/13 10:03:59;;;;;;;3.60;3.30;;;19.60;99.90;;;;;;5071997;28;20523;-48
2022/06/13 10:06:36;;;;;;;3.70;3.40;;;19.60;99.90;;;;;;5071952;28;20891;-47
2022/06/13 10:09:20;;;;;;;5.40;3.87;;;19.50;99.90;;;;;;5071998;28;20483;-47
2022/06/13 10:11:54;;;;;;;5.70;5.20;;;19.50;99.90;;;;;;5072096;28;20506;-47
2022/06/13 10:14:54;;;;;;;8.40;4.90;;;19.50;99.90;;;;;;5071991;28;20445;-47
2022/06/13 10:17:39;;;;;;;5.80;5.30;;;19.50;99.90;;;;;;5071794;28;20450;-46
2022/06/13 10:20:13;;;;;;;5.60;5.10;;;19.50;99.90;;;;;;5071697;28;20546;-47
2022/06/13 10:22:55;;;;;;;5.30;4.80;;;19.50;99.90;;;;;;5071845;28;20458;-47
2022/06/13 10:25:34;;;;;;;5.50;5.00;;;19.50;99.90;;;;;;5071580;28;20494;-49
2022/06/13 10:28:14;;;;;;;5.43;4.97;;;19.60;99.90;;;;;;5071865;28;20789;-46
2022/06/13 10:30:49;;;;;;;5.30;4.90;;;19.70;99.90;;;;;;5071206;28;20514;-49
2022/06/13 10:33:29;;;;;;;4.37;3.97;;;19.70;99.90;;;;;;5071814;28;20501;-46
2022/06/13 10:36:03;;;;;;;4.93;4.43;;;19.80;99.90;;;;;;5071055;28;20479;-48
2022/06/13 10:38:45;;;;;;;4.97;4.57;;;19.50;99.90;;;;;;5070901;28;20519;-47
2022/06/13 10:41:13;;;;;;;3.93;3.60;;;19.30;99.90;;;;;;5068182;28;20452;-45
2022/06/13 10:43:42;;;;;;;4.80;4.40;;;19.60;99.90;;;;;;5070854;28;20436;-48
2022/06/13 10:46:13;;;;;;;3.83;3.53;;;19.70;99.90;;;;;;5071117;28;20872;-48
2022/06/13 10:48:46;;;;;;;3.30;3.00;;;19.80;99.90;;;;;;5070758;28;21001;-47
2022/06/13 10:51:13;;;;;;;3.97;3.60;;;20.00;99.90;;;;;;5068092;28;21138;-47
2022/06/13 10:53:43;;;;;;;4.70;4.30;;;20.20;99.90;;;;;;5070480;28;20445;-46
2022/06/13 10:56:15;;;;;;;7.80;4.00;;;20.40;99.90;;;;;;5070200;28;21000;-47
2022/06/13 10:58:48;;;;;;;7.00;5.30;;;20.50;99.90;;;;;;5070911;28;20455;-48
2022/06/13 11:01:17;;;;;;;4.57;4.17;;;20.60;99.90;;;;;;5071152;28;20905;-48
2022/06/13 11:04:00;;;;;;;4.57;4.17;;;20.70;99.90;;;;;;5071253;28;20991;-46
2022/06/13 11:06:42;;;;;;;4.67;4.27;;;20.70;99.90;;;;;;5070776;28;20879;-49
2022/06/13 11:09:27;;;;;;;5.00;4.10;;;20.80;99.90;;;;;;5070582;28;20454;-50
2022/06/13 11:11:56;;;;;;;5.33;3.60;;;20.70;99.90;;;;;;5070855;28;20444;-50
2022/06/13 11:14:32;;;;;;;4.20;3.80;;;20.60;99.90;;;;;;5070956;28;20472;-46
2022/06/13 11:22:40;;;;;;;3.47;3.10;;;20.50;99.90;;;;;;5070925;28;20440;-51
2022/06/13 11:25:18;;;;;;;2.53;2.33;;;20.40;99.90;;;;;;5071067;28;20448;-49
2022/06/13 11:27:48;;;;;;;3.30;3.00;;;20.30;99.90;;;;;;5071003;28;20482;-48
2022/06/13 11:30:34;;;;;;;2.73;2.53;;;20.30;99.90;;;;;;5070446;28;20511;-47
2022/06/13 11:33:02;;;;;;;243.90;28.53;;;20.10;99.90;;;;;;5070917;28;20479;-49
2022/06/13 11:35:36;;;;;;;2.33;2.13;;;19.90;99.90;;;;;;5070649;28;20509;-47
2022/06/13 11:38:20;;;;;;;3.43;3.00;;;19.60;99.90;;;;;;5070916;28;20440;-47
2022/06/13 11:40:56;;;;;;;3.37;2.33;;;19.50;99.90;;;;;;5070760;28;20455;-46
2022/06/13 11:43:32;;;;;;;1.90;1.70;;;19.60;99.90;;;;;;5071236;28;20964;-47
2022/06/13 11:46:02;;;;;;;2.10;1.57;;;19.70;99.90;;;;;;5071330;28;20443;-48
2022/06/13 11:48:30;;;;;;;2.37;1.70;;;19.70;99.90;;;;;;5070858;28;20490;-48
2022/06/13 11:51:02;;;;;;;2.30;2.10;;;19.70;99.90;;;;;;5070827;28;20593;-47
2022/06/13 11:53:39;;;;;;;2.10;1.90;;;19.80;99.90;;;;;;5070654;28;20928;-47
2022/06/13 11:56:12;;;;;;;2.40;2.20;;;19.80;99.90;;;;;;5070892;28;21242;-47
2022/06/13 11:58:46;;;;;;;2.17;1.97;;;19.90;99.90;;;;;;5070485;28;20440;-47
2022/06/13 12:01:20;;;;;;;1.80;1.50;;;19.90;99.90;;;;;;5070409;28;20500;-49
2022/06/13 12:04:03;;;;;;;1.90;1.70;;;19.90;99.90;;;;;;5070379;28;20436;-51
2022/06/13 12:06:36;;;;;;;1.90;1.70;;;20.00;99.90;;;;;;5070715;28;20523;-48
2022/06/13 12:09:13;;;;;;;1.57;1.40;;;20.00;99.90;;;;;;5071483;28;20874;-48
2022/06/13 12:11:45;;;;;;;1.60;1.50;;;20.00;99.90;;;;;;5074469;28;20468;-47
2022/06/13 12:14:13;;;;;;;1.70;1.50;;;20.00;99.90;;;;;;5074129;28;20448;-48
2022/06/13 12:16:44;;;;;;;3.40;2.40;;;20.10;99.90;;;;;;5074100;28;20507;-48
2022/06/13 12:19:23;;;;;;;2.80;2.00;;;20.10;99.90;;;;;;5074378;28;20727;-47
2022/06/13 12:21:58;;;;;;;2.50;2.30;;;20.10;99.90;;;;;;5074182;28;20440;-51
2022/06/13 12:24:32;;;;;;;2.60;1.93;;;20.10;99.90;;;;;;5074321;28;20448;-47
2022/06/13 12:27:06;;;;;;;2.23;2.03;;;20.10;99.90;;;;;;5074200;28;20440;-47
2022/06/13 12:29:52;;;;;;;2.60;2.23;;;20.10;99.90;;;;;;5073783;28;20525;-47
2022/06/13 12:32:23;;;;;;;3.27;2.60;;;20.10;99.90;;;;;;5074270;28;20509;-48
2022/06/13 12:35:04;;;;;;;2.30;2.10;;;20.20;99.90;;;;;;5073921;28;20471;-47
2022/06/13 12:37:43;;;;;;;2.13;1.93;;;20.10;99.90;;;;;;5073892;28;20475;-47
2022/06/13 12:40:20;;;;;;;3.60;2.00;;;20.00;99.90;;;;;;5073602;28;20459;-47
2022/06/13 12:43:12;;;;;;;2.80;2.00;;;20.10;99.90;;;;;;5073834;28;20976;-47
2022/06/13 12:45:54;;;;;;;2.63;2.33;;;20.10;99.90;;;;;;5060462;28;20524;-47
2022/06/13 12:48:30;;;;;;;2.53;2.33;;;20.10;99.90;;;;;;5073659;28;20479;-47
2022/06/13 12:51:14;;;;;;;2.57;2.37;;;20.10;99.90;;;;;;5073733;28;20460;-47
2022/06/13 12:54:03;;;;;;;3.20;2.20;;;20.00;99.90;;;;;;5073909;28;20445;-47
2022/06/13 12:56:38;;;;;;;2.70;1.90;;;20.10;99.90;;;;;;5073659;28;20476;-47
2022/06/13 12:59:15;;;;;;;2.83;1.90;;;20.10;99.90;;;;;;5073381;28;20448;-47
2022/06/13 13:01:50;;;;;;;2.37;2.13;;;20.20;99.90;;;;;;5073433;28;20455;-49
2022/06/13 13:04:41;;;;;;;2.80;2.30;;;20.20;99.90;;;;;;5073634;28;20490;-47
2022/06/13 13:07:19;;;;;;;2.60;1.87;;;20.20;99.90;;;;;;5073371;28;20475;-48
2022/06/13 13:10:03;;;;;;;5.43;1.87;;;20.20;99.90;;;;;;5072990;28;20460;-46
2022/06/13 13:12:55;;;;;;;2.93;2.20;;;20.20;99.90;;;;;;5073250;28;20483;-47
2022/06/13 13:15:33;;;;;;;5.43;2.33;;;20.30;99.90;;;;;;5073385;28;20494;-49
2022/06/13 13:18:05;;;;;;;9.90;2.37;;;20.30;99.90;;;;;;5073321;28;20440;-48
2022/06/13 13:20:37;;;;;;;2.37;1.77;;;20.20;99.90;;;;;;5071793;28;20547;-48
2022/06/13 13:23:15;;;;;;;2.20;1.70;;;20.30;99.90;;;;;;5073009;28;20991;-49
2022/06/13 13:25:52;;;;;;;3.40;2.33;;;20.20;99.90;;;;;;5073029;28;20516;-51
2022/06/13 13:28:31;;;;;;;7.10;2.90;;;20.20;99.90;;;;;;5073131;28;20471;-49